Weather at Phuoc Binh Airport [CLOSED]

Public forecast

Using degrees Celsius for public forecast. Weather courtesy of forecast.io.

Closest aviation weather report (METAR) to Phuoc Binh Airport

Closest report is Tan Son Nhat International Airport, 62.9 nm (116.4 km) SSW.

2024/07/24 03:30 (retrieved 21 minutes ago)

VVTS 240330Z 25014KT 9999 FEW026 SCT034 BKN082 32/26 Q1007 NOSI G

Closest aviation forecast (TAF) to Phuoc Binh Airport

Forecast is more than 12 hours old.

Closest forecast is Car Nicobar Air Force Base, 850.0 nm (1,574.2 km) W.

2024/07/23 12:00 (retrieved 16 hours ago)

TAF VOCX 230930Z 2312/2324 22010KT 6000 SCT015 BKN090 TEMPO 1215/1217 24010G20KT 5000 RA SCT015 FEW025TCU BKN090